Time;durP1;ratioP1;P1;durP2;ratioP2;P2;SDS_P1;SDS_P2;PMS_P1;PMS_P2;Temp;Humidity;BMP_temperature;BMP_pressure;BME280_temperature;BME280_humidity;BME280_pressure;Samples;Min_cycle;Max_cycle;Signal;HPM_P1;HPM_P2
2021/07/13 00:00:15;;;;;;;25.88;23.65;;;;;;;;;;5075133;28;20429;-87
2021/07/13 00:02:41;;;;;;;27.67;25.33;;;;;;;;;;5074741;28;20376;-87
2021/07/13 00:05:09;;;;;;;26.63;24.27;;;;;;;;;;5075106;28;20380;-89
2021/07/13 00:07:35;;;;;;;24.97;22.87;;;;;;;;;;5075150;28;20799;-85
2021/07/13 00:10:02;;;;;;;25.13;22.83;;;;;;;;;;5075282;28;20468;-88
2021/07/13 00:12:28;;;;;;;26.83;24.23;;;;;;;;;;5075720;28;20609;-88
2021/07/13 00:14:54;;;;;;;25.40;23.10;;;;;;;;;;5074977;28;20383;-88
2021/07/13 00:17:20;;;;;;;24.98;22.88;;;;;;;;;;5074820;28;20369;-85
2021/07/13 00:19:46;;;;;;;23.63;21.67;;;;;;;;;;5092427;28;20792;-88
2021/07/13 00:22:11;;;;;;;26.42;24.33;;;;;;;;;;5092712;28;20368;-85
2021/07/13 00:24:37;;;;;;;25.88;23.77;;;;;;;;;;5074579;28;20886;-86
2021/07/13 00:27:04;;;;;;;25.88;23.48;;;;;;;;;;5074907;28;20376;-89
2021/07/13 00:29:30;;;;;;;25.80;23.35;;;;;;;;;;5074539;28;20400;-86
2021/07/13 00:31:55;;;;;;;24.45;22.40;;;;;;;;;;5074726;28;20498;-86
2021/07/13 00:34:21;;;;;;;24.40;22.40;;;;;;;;;;5075025;28;20866;-85
2021/07/13 00:36:47;;;;;;;27.17;24.55;;;;;;;;;;5074664;28;20365;-87
2021/07/13 00:39:14;;;;;;;26.03;23.47;;;;;;;;;;5075357;28;20955;-89
2021/07/13 00:41:40;;;;;;;24.85;22.75;;;;;;;;;;5075162;28;20373;-86
2021/07/13 00:44:06;;;;;;;25.40;23.13;;;;;;;;;;5074905;28;20364;-88
2021/07/13 00:46:39;;;;;;;26.88;24.23;;;;;;;;;;5075222;28;20418;-88
2021/07/13 00:49:05;;;;;;;26.80;24.42;;;;;;;;;;5075826;28;20372;-85
2021/07/13 00:51:31;;;;;;;25.27;23.10;;;;;;;;;;5074959;28;20518;-88
2021/07/13 00:53:57;;;;;;;24.93;22.73;;;;;;;;;;5074953;28;20742;-89
2021/07/13 00:56:23;;;;;;;23.23;21.27;;;;;;;;;;5074015;28;20368;-86
2021/07/13 00:58:49;;;;;;;25.50;23.35;;;;;;;;;;5073920;28;20462;-86
2021/07/13 01:01:15;;;;;;;25.80;23.50;;;;;;;;;;5074034;28;20357;-85
2021/07/13 01:03:41;;;;;;;26.40;23.97;;;;;;;;;;5091787;28;20729;-86
2021/07/13 01:06:08;;;;;;;27.58;25.08;;;;;;;;;;5073503;28;20376;-85
2021/07/13 01:08:45;;;;;;;26.00;23.80;;;;;;;;;;5091401;28;20392;-87
2021/07/13 01:11:23;;;;;;;26.17;23.77;;;;;;;;;;5091589;28;20360;-85
2021/07/13 01:14:08;;;;;;;25.95;23.70;;;;;;;;;;5073235;28;20380;-85
2021/07/13 01:16:42;;;;;;;25.90;23.50;;;;;;;;;;5073409;28;20376;-87
2021/07/13 01:19:26;;;;;;;26.23;23.83;;;;;;;;;;5073773;28;20373;-86
2021/07/13 01:22:00;;;;;;;25.92;23.60;;;;;;;;;;5073389;28;20368;-89
2021/07/13 01:24:26;;;;;;;26.77;24.33;;;;;;;;;;5072929;28;20399;-85
2021/07/13 01:27:01;;;;;;;27.58;25.23;;;;;;;;;;5091198;28;20372;-87
2021/07/13 01:29:27;;;;;;;27.03;24.53;;;;;;;;;;5073207;28;20467;-87
2021/07/13 01:31:54;;;;;;;27.63;25.02;;;;;;;;;;5075613;28;20400;-86
2021/07/13 01:34:22;;;;;;;29.48;26.67;;;;;;;;;;5095012;28;20399;-84
2021/07/13 01:36:50;;;;;;;28.60;25.90;;;;;;;;;;5077266;28;20369;-85
2021/07/13 01:39:17;;;;;;;27.63;25.23;;;;;;;;;;5074326;28;20852;-85
2021/07/13 01:41:43;;;;;;;27.00;24.50;;;;;;;;;;5103187;28;20885;-86
2021/07/13 01:44:10;;;;;;;28.67;25.93;;;;;;;;;;5079588;28;20438;-86
2021/07/13 01:46:38;;;;;;;27.43;25.03;;;;;;;;;;5097491;28;20395;-85
2021/07/13 01:49:05;;;;;;;27.33;24.73;;;;;;;;;;5075329;28;20398;-88
2021/07/13 01:51:31;;;;;;;28.98;26.27;;;;;;;;;;5072552;28;20467;-86
2021/07/13 01:54:02;;;;;;;31.02;28.02;;;;;;;;;;5090324;28;20462;-86
2021/07/13 01:56:29;;;;;;;28.88;26.15;;;;;;;;;;5072361;28;20737;-87
2021/07/13 01:58:57;;;;;;;27.50;25.07;;;;;;;;;;5072547;28;20429;-86
2021/07/13 02:01:23;;;;;;;29.40;26.58;;;;;;;;;;5072234;28;20938;-87
2021/07/13 02:03:51;;;;;;;30.48;27.55;;;;;;;;;;5072518;28;20376;-88
2021/07/13 02:06:17;;;;;;;28.30;25.58;;;;;;;;;;5072122;28;20829;-87
2021/07/13 02:08:44;;;;;;;27.73;25.13;;;;;;;;;;5071986;28;20396;-86
2021/07/13 02:11:11;;;;;;;26.08;23.65;;;;;;;;;;5072226;28;20388;-87
2021/07/13 02:13:37;;;;;;;27.00;24.60;;;;;;;;;;5072306;28;20430;-87
2021/07/13 02:16:04;;;;;;;28.70;26.15;;;;;;;;;;5072212;28;20954;-86
2021/07/13 02:18:30;;;;;;;33.42;30.25;;;;;;;;;;5072042;28;20379;-86
2021/07/13 02:20:57;;;;;;;30.25;27.42;;;;;;;;;;5090561;28;20371;-86
2021/07/13 02:23:23;;;;;;;32.00;28.80;;;;;;;;;;5071859;28;20369;-86
2021/07/13 02:25:50;;;;;;;29.92;26.92;;;;;;;;;;5072365;28;20712;-86
2021/07/13 02:28:19;;;;;;;29.65;26.92;;;;;;;;;;5090022;28;20858;-87
2021/07/13 02:30:48;;;;;;;31.67;28.73;;;;;;;;;;5072142;28;20373;-86
2021/07/13 02:33:29;;;;;;;30.47;27.30;;;;;;;;;;5072236;28;20400;-88
2021/07/13 02:35:59;;;;;;;30.53;27.47;;;;;;;;;;5072126;28;20380;-86
2021/07/13 02:38:25;;;;;;;32.92;29.65;;;;;;;;;;5089849;28;20459;-87
2021/07/13 02:40:52;;;;;;;31.90;28.67;;;;;;;;;;5089924;28;20368;-86
2021/07/13 02:43:19;;;;;;;33.78;30.67;;;;;;;;;;5071602;28;20430;-87
2021/07/13 02:45:46;;;;;;;31.27;28.13;;;;;;;;;;5071561;28;20776;-87
2021/07/13 02:48:13;;;;;;;31.48;28.27;;;;;;;;;;5089926;28;20379;-87
2021/07/13 02:50:41;;;;;;;31.48;28.48;;;;;;;;;;5071896;28;20384;-86
2021/07/13 02:53:08;;;;;;;31.55;28.67;;;;;;;;;;5071395;28;20396;-87
2021/07/13 02:55:34;;;;;;;34.30;31.10;;;;;;;;;;5071685;28;20434;-87
2021/07/13 02:58:01;;;;;;;34.00;30.88;;;;;;;;;;5071677;28;20396;-87
2021/07/13 03:00:27;;;;;;;31.98;28.88;;;;;;;;;;5071587;28;20733;-86
2021/07/13 03:02:54;;;;;;;30.40;27.67;;;;;;;;;;5089627;28;20865;-86
2021/07/13 03:05:21;;;;;;;29.42;26.63;;;;;;;;;;5071539;28;20408;-87
2021/07/13 03:07:48;;;;;;;26.80;24.50;;;;;;;;;;5071703;28;20388;-86
2021/07/13 03:10:14;;;;;;;29.85;27.00;;;;;;;;;;5073402;28;20388;-86
2021/07/13 03:12:43;;;;;;;29.85;27.13;;;;;;;;;;5075153;28;20828;-86
2021/07/13 03:15:09;;;;;;;33.53;30.17;;;;;;;;;;5075364;28;20949;-85
2021/07/13 03:17:35;;;;;;;34.75;31.52;;;;;;;;;;5075260;28;20429;-86
2021/07/13 03:20:01;;;;;;;35.55;32.05;;;;;;;;;;5075384;28;20380;-87
2021/07/13 03:22:30;;;;;;;39.17;35.28;;;;;;;;;;5075157;28;20377;-86
2021/07/13 03:24:58;;;;;;;38.45;34.72;;;;;;;;;;5075156;28;20364;-87
2021/07/13 03:27:24;;;;;;;42.40;38.30;;;;;;;;;;5093182;28;20864;-85
2021/07/13 03:29:52;;;;;;;38.90;35.30;;;;;;;;;;5092782;28;20502;-87
2021/07/13 03:32:18;;;;;;;41.13;36.92;;;;;;;;;;5074684;28;20910;-85
2021/07/13 03:34:45;;;;;;;40.10;35.97;;;;;;;;;;5074897;28;20466;-86
2021/07/13 03:37:11;;;;;;;39.83;36.00;;;;;;;;;;5075075;28;20411;-90
2021/07/13 03:39:37;;;;;;;41.23;37.10;;;;;;;;;;5074676;28;20411;-86
2021/07/13 03:42:04;;;;;;;40.03;36.23;;;;;;;;;;5075037;28;20364;-85
2021/07/13 03:44:30;;;;;;;40.33;36.53;;;;;;;;;;5074364;28;20371;-85
2021/07/13 03:46:56;;;;;;;40.80;36.88;;;;;;;;;;5092851;28;20369;-85
2021/07/13 03:49:23;;;;;;;39.20;35.50;;;;;;;;;;5074345;28;20778;-85
2021/07/13 03:51:49;;;;;;;38.67;35.15;;;;;;;;;;5074150;28;20473;-86
2021/07/13 03:54:17;;;;;;;38.95;35.05;;;;;;;;;;5092684;28;20825;-85
2021/07/13 03:56:44;;;;;;;40.15;36.30;;;;;;;;;;5092255;28;20430;-85
2021/07/13 03:59:10;;;;;;;37.90;34.30;;;;;;;;;;5074330;28;20467;-86
2021/07/13 04:01:36;;;;;;;39.85;35.92;;;;;;;;;;5074222;28;20513;-86
2021/07/13 04:04:03;;;;;;;38.22;34.67;;;;;;;;;;5074196;28;20380;-85
2021/07/13 04:06:30;;;;;;;35.97;32.57;;;;;;;;;;5073997;28;20376;-85
2021/07/13 04:08:56;;;;;;;37.97;34.08;;;;;;;;;;5073908;28;20451;-86
2021/07/13 04:11:22;;;;;;;35.03;31.80;;;;;;;;;;5073902;28;20372;-86
2021/07/13 04:13:48;;;;;;;35.90;32.40;;;;;;;;;;5073821;28;20847;-85
2021/07/13 04:16:14;;;;;;;37.05;33.60;;;;;;;;;;5074135;28;20720;-85
2021/07/13 04:18:40;;;;;;;36.10;32.67;;;;;;;;;;5091617;28;20361;-85
2021/07/13 04:21:06;;;;;;;34.88;31.52;;;;;;;;;;5090798;28;20373;-86
2021/07/13 04:23:32;;;;;;;33.28;30.27;;;;;;;;;;5091570;28;20364;-85
2021/07/13 04:25:59;;;;;;;32.33;29.30;;;;;;;;;;5091828;28;20368;-86
2021/07/13 04:28:26;;;;;;;31.45;28.45;;;;;;;;;;5073463;28;20455;-86
2021/07/13 04:30:52;;;;;;;31.13;28.40;;;;;;;;;;5073703;28;20364;-87
2021/07/13 04:33:18;;;;;;;30.65;27.85;;;;;;;;;;5071284;28;20392;-84
2021/07/13 04:35:45;;;;;;;31.55;28.63;;;;;;;;;;5072434;28;20349;-85
2021/07/13 04:38:11;;;;;;;29.67;26.98;;;;;;;;;;5073113;28;20475;-84
2021/07/13 04:40:37;;;;;;;30.52;27.83;;;;;;;;;;5072914;28;20459;-87
2021/07/13 04:43:04;;;;;;;30.85;27.88;;;;;;;;;;5073243;28;20387;-84
2021/07/13 04:45:30;;;;;;;28.58;25.92;;;;;;;;;;5073433;28;20908;-83
2021/07/13 04:47:55;;;;;;;23.75;21.75;;;;;;;;;;5091795;28;20400;-88
2021/07/13 04:50:22;;;;;;;23.27;21.20;;;;;;;;;;5092003;28;20723;-87
2021/07/13 04:52:48;;;;;;;22.73;20.53;;;;;;;;;;5074153;28;20744;-87
2021/07/13 04:55:17;;;;;;;22.80;20.73;;;20.50;99.90;;;;;;5074100;28;20380;-88
2021/07/13 04:57:43;;;;;;;22.73;20.65;;;20.60;99.90;;;;;;5072861;28;20416;-86
2021/07/13 05:00:10;;;;;;;21.50;19.55;;;20.70;99.90;;;;;;5073080;28;20430;-85
2021/07/13 05:02:35;;;;;;;23.00;20.58;;;20.80;99.90;;;;;;5072946;28;20384;-87
2021/07/13 05:05:01;;;;;;;20.37;18.47;;;21.10;99.90;;;;;;5073267;28;20828;-87
2021/07/13 05:07:26;;;;;;;21.17;19.20;;;21.50;99.90;;;;;;5073550;28;20388;-88
2021/07/13 05:09:52;;;;;;;20.00;18.10;;;22.00;99.90;;;;;;5090576;28;20380;-87
2021/07/13 05:12:18;;;;;;;19.30;17.57;;;22.30;99.90;;;;;;5072828;28;20511;-88
2021/07/13 05:14:43;;;;;;;19.02;17.48;;;22.40;99.90;;;;;;5072983;28;20416;-84
2021/07/13 05:17:11;;;;;;;19.07;17.37;;;22.50;99.90;;;;;;5091102;28;20518;-86
2021/07/13 05:19:39;;;;;;;19.73;18.02;;;22.40;99.90;;;;;;5072594;28;20870;-85
2021/07/13 05:22:08;;;;;;;18.05;16.45;;;22.50;99.90;;;;;;5072816;28;20415;-86
2021/07/13 05:24:33;;;;;;;18.42;16.92;;;22.70;99.90;;;;;;5072628;28;20389;-88
2021/07/13 05:26:59;;;;;;;18.10;16.60;;;23.20;99.90;;;;;;5072520;28;20373;-85
2021/07/13 05:29:26;;;;;;;16.63;15.13;;;;;;;;;;5072299;28;20372;-86
2021/07/13 05:31:53;;;;;;;19.05;15.73;;;;;;;;;;5072250;28;20905;-87
2021/07/13 05:34:19;;;;;;;18.20;16.52;;;;;;;;;;5072705;28;20935;-85
2021/07/13 05:36:45;;;;;;;18.35;16.55;;;;;;;;;;5073173;28;20376;-87
2021/07/13 05:39:11;;;;;;;17.67;15.98;;;;;;;;;;5072539;28;20377;-88
2021/07/13 05:41:37;;;;;;;19.45;17.67;;;;;;;;;;5072349;28;20791;-90
2021/07/13 05:44:06;;;;;;;19.40;17.73;;;;;;;;;;5072724;28;20379;-85
2021/07/13 05:46:32;;;;;;;19.17;17.58;;;;;;;;;;5072620;28;20365;-89
2021/07/13 05:48:58;;;;;;;19.90;18.00;;;;;;;;;;5090845;28;20373;-86
2021/07/13 05:51:24;;;;;;;20.27;18.48;;;;;;;;;;5072660;28;20377;-89
2021/07/13 05:53:50;;;;;;;21.60;19.60;;;;;;;;;;5072725;28;20425;-87
2021/07/13 05:56:16;;;;;;;21.30;19.50;;;;;;;;;;5073023;28;20369;-85
2021/07/13 05:58:42;;;;;;;21.10;19.02;;;;;;;;;;5098053;28;20404;-88
2021/07/13 06:01:08;;;;;;;20.33;18.60;;;;;;;;;;5074853;28;20380;-86
2021/07/13 06:03:34;;;;;;;20.38;18.55;;;;;;;;;;5074706;28;20376;-87
2021/07/13 06:06:00;;;;;;;20.75;18.75;;;;;;;;;;5073629;28;20369;-86
2021/07/13 06:08:26;;;;;;;19.58;17.75;;;;;;;;;;5090152;28;20380;-86
2021/07/13 06:10:53;;;;;;;19.33;17.42;;;;;;;;;;5090337;28;20360;-85
2021/07/13 06:13:19;;;;;;;18.50;16.65;;;;;;;;;;5090306;28;20472;-87
2021/07/13 06:15:46;;;;;;;17.03;15.30;;;;;;;;;;5072540;28;20870;-86
2021/07/13 06:18:12;;;;;;;16.45;14.93;;;;;;;;;;5090252;28;20379;-85
2021/07/13 06:20:38;;;;;;;17.13;15.57;;;;;;;;;;5072274;28;20387;-87
2021/07/13 06:23:04;;;;;;;15.80;14.32;;;;;;;;;;5090281;28;20917;-86
2021/07/13 06:25:30;;;;;;;14.63;13.25;;;;;;;;;;5074960;28;20372;-86
2021/07/13 06:27:56;;;;;;;13.35;12.15;;;;;;;;;;5073000;28;20364;-86
2021/07/13 06:30:22;;;;;;;13.23;11.93;;;;;;;;;;5092375;28;20716;-86
2021/07/13 06:32:53;;;;;;;13.07;11.77;;;;;;;;;;5074339;28;20402;-84
2021/07/13 06:35:19;;;;;;;11.82;10.80;;;;;;;;;;5081388;28;20400;-85
2021/07/13 06:37:45;;;;;;;13.25;11.13;;;;;;;;;;5073961;28;20377;-84
2021/07/13 06:40:12;;;;;;;12.13;11.02;;;;;;;;;;5090299;28;20368;-87
2021/07/13 06:42:40;;;;;;;12.30;11.10;;;;;;;;;;5069584;28;20483;-88
2021/07/13 06:45:06;;;;;;;11.65;10.43;;;;;;;;;;5071909;28;20463;-87
2021/07/13 06:47:32;;;;;;;11.68;10.57;;;;;;;;;;5074045;28;20373;-85
2021/07/13 06:49:58;;;;;;;13.27;10.57;;;;;;;;;;5092934;28;20727;-87
2021/07/13 06:52:24;;;;;;;11.40;9.50;;;;;;;;;;5074741;28;20491;-86
2021/07/13 06:54:50;;;;;;;9.65;8.38;;;;;;;;;;5093094;28;20842;-87
2021/07/13 06:57:16;;;;;;;9.27;8.38;;;;;;;;;;5075006;28;20731;-87
2021/07/13 06:59:42;;;;;;;9.77;8.77;;;;;;;;;;5074870;28;20365;-87
2021/07/13 07:02:09;;;;;;;10.18;9.27;;;;;;;;;;5074927;28;20480;-88
2021/07/13 07:04:36;;;;;;;9.90;8.20;;;;;;;;;;5075028;28;20388;-88
2021/07/13 07:07:02;;;;;;;9.23;8.40;;;;;;;;;;5075046;28;20878;-87
2021/07/13 07:09:28;;;;;;;9.00;8.20;;;;;;;;;;5075125;28;20799;-87
2021/07/13 07:11:54;;;;;;;10.20;8.23;;;;;;;;;;5093665;28;20490;-86
2021/07/13 07:14:20;;;;;;;9.35;6.55;;;;;;;;;;5075013;28;20377;-87
2021/07/13 07:16:46;;;;;;;6.90;6.20;;;;;;;;;;5092886;28;20437;-87
2021/07/13 07:19:12;;;;;;;6.82;6.07;;;;;;;;;;5074600;28;20802;-87
2021/07/13 07:21:38;;;;;;;6.97;5.97;;;;;;;;;;5075210;28;20463;-85
2021/07/13 07:24:04;;;;;;;7.40;6.17;;;;;;;;;;5075472;28;20364;-89
2021/07/13 07:26:30;;;;;;;6.80;5.90;;;;;;;;;;5075233;28;20380;-84
2021/07/13 07:28:56;;;;;;;8.30;6.00;;;;;;;;;;5074917;28;20384;-86
2021/07/13 07:31:22;;;;;;;7.05;5.68;;;;;;;;;;5074210;28;20383;-86
2021/07/13 07:33:48;;;;;;;7.03;5.90;;;;;;;;;;5093717;28;20372;-85
2021/07/13 07:36:14;;;;;;;9.35;6.68;;;;;;;;;;5074826;28;20375;-87
2021/07/13 07:38:40;;;;;;;13.77;6.60;;;;;;;;;;5074934;28;20404;-84
2021/07/13 07:41:07;;;;;;;7.50;6.10;;;;;;;;;;5093231;28;20403;-85
2021/07/13 07:43:33;;;;;;;8.60;6.07;;;;;;;;;;5071702;28;20381;-88
2021/07/13 07:45:58;;;;;;;7.40;6.55;;;;;;;;;;5075905;28;20392;-85
2021/07/13 07:48:25;;;;;;;7.22;6.47;;;;;;;;;;5092709;28;20396;-86
2021/07/13 07:50:51;;;;;;;7.72;6.95;;;;;;;;;;5074322;28;20377;-86
2021/07/13 07:53:17;;;;;;;7.47;6.80;;;;;;;;;;5074180;28;20404;-89
2021/07/13 07:55:43;;;;;;;7.82;7.10;;;;;;;;;;5091955;28;20476;-86
2021/07/13 07:58:10;;;;;;;7.45;6.85;;;;;;;;;;5074646;28;20446;-88
2021/07/13 08:00:36;;;;;;;7.70;6.90;;;;;;;;;;5073828;28;20380;-86
2021/07/13 08:03:02;;;;;;;6.90;6.28;;;;;;;;;;5092593;28;20456;-84
2021/07/13 08:05:30;;;;;;;6.85;6.25;;;;;;;;;;5092435;28;20368;-88
2021/07/13 08:07:56;;;;;;;10.20;6.65;;;;;;;;;;5074316;28;20482;-85
2021/07/13 08:10:22;;;;;;;8.68;6.22;;;;;;;;;;5091837;28;20454;-87
2021/07/13 08:12:49;;;;;;;10.75;6.57;;;;;;;;;;5073839;28;20469;-88
2021/07/13 08:15:15;;;;;;;7.13;6.28;;;;;;;;;;5074029;28;20810;-85
2021/07/13 08:17:41;;;;;;;6.45;5.85;;;;;;;;;;5091964;28;20357;-87
2021/07/13 08:20:09;;;;;;;8.20;6.20;;;;;;;;;;5074551;28;20368;-86
2021/07/13 08:22:36;;;;;;;6.95;5.72;;;;;;;;;;5073437;28;20368;-86
2021/07/13 08:25:02;;;;;;;7.72;6.32;;;;;;;;;;5073202;28;20373;-86
2021/07/13 08:27:29;;;;;;;7.53;5.40;;;;;;;;;;5091800;28;20534;-89
2021/07/13 08:29:55;;;;;;;6.57;5.88;;;;;;;;;;5073436;28;20436;-85
2021/07/13 08:32:21;;;;;;;8.15;6.25;;;;;;;;;;5092486;28;20408;-88
2021/07/13 08:34:47;;;;;;;7.80;5.85;;;;;;;;;;5073271;28;20395;-86
2021/07/13 08:37:13;;;;;;;7.67;5.93;;;;;;;;;;5073096;28;20451;-88
2021/07/13 08:39:39;;;;;;;8.27;5.15;;;;;;;;;;5073408;28;20381;-85
2021/07/13 08:42:05;;;;;;;6.88;6.03;;;;;;;;;;5072597;28;20369;-86
2021/07/13 08:44:32;;;;;;;6.47;5.80;;;;;;;;;;5072463;28;20466;-87
2021/07/13 08:46:58;;;;;;;5.88;5.30;;;;;;;;;;5073382;28;20384;-86
2021/07/13 08:49:24;;;;;;;7.40;5.60;;;;;;;;;;5073095;28;20376;-88
2021/07/13 08:51:50;;;;;;;5.95;5.35;;;;;;;;;;5073267;28;20411;-86
2021/07/13 08:54:16;;;;;;;7.25;4.95;;;;;;;;;;5074053;28;20372;-86
2021/07/13 08:56:43;;;;;;;5.65;5.00;;;;;;;;;;5073474;28;20439;-86
2021/07/13 08:59:09;;;;;;;6.88;5.55;;;;;;;;;;5087966;28;20386;-88
2021/07/13 09:01:35;;;;;;;5.63;5.10;;;;;;;;;;5071655;28;20380;-87
2021/07/13 09:04:05;;;;;;;5.60;5.03;;;;;;;;;;5069851;28;20382;-89
2021/07/13 09:06:50;;;;;;;9.02;5.47;;;;;;;;;;5070475;28;20464;-88
2021/07/13 09:09:32;;;;;;;8.63;5.43;;;;;;;;;;5070146;28;20944;-87
2021/07/13 09:12:08;;;;;;;5.53;5.03;;;;;;;;;;5069589;28;20530;-88
2021/07/13 09:14:54;;;;;;;5.10;4.55;;;;;;;;;;5068830;28;20866;-86
2021/07/13 09:17:26;;;;;;;8.20;4.70;;;;;;;;;;5069362;28;20376;-85
2021/07/13 09:20:17;;;;;;;5.15;4.50;;;;;;;;;;5088682;28;20429;-86
2021/07/13 09:22:54;;;;;;;4.90;4.13;;;;;;;;;;5070069;28;20384;-87
2021/07/13 09:25:28;;;;;;;5.07;3.63;;;;;;;;;;5069601;28;20373;-86
2021/07/13 09:28:14;;;;;;;4.50;3.50;;;;;;;;;;5069916;28;20377;-88
2021/07/13 09:30:50;;;;;;;5.43;3.70;;;;;;;;;;5088424;28;20416;-86
2021/07/13 09:33:23;;;;;;;4.70;3.50;;;;;;;;;;5087644;28;20408;-87
2021/07/13 09:36:03;;;;;;;4.45;3.55;;;;;;;;;;5069824;28;20373;-87
2021/07/13 09:38:32;;;;;;;5.87;3.30;;;;;;;;;;5069640;28;20936;-87
2021/07/13 09:41:02;;;;;;;5.37;3.17;;;;;;;;;;5069461;28;20377;-86
2021/07/13 09:43:49;;;;;;;5.72;3.50;;;;;;;;;;5087702;28;20403;-89
2021/07/13 09:46:25;;;;;;;5.00;3.55;;;;;;;;;;5070435;28;20403;-88
2021/07/13 09:49:12;;;;;;;5.60;3.63;;;;;;;;;;5088367;28;20364;-89
2021/07/13 09:51:48;;;;;;;5.85;3.50;;;;;;;;;;5087826;28;20803;-87
2021/07/13 09:54:31;;;;;;;6.30;3.40;;;;;;;;;;5068705;28;20373;-88
2021/07/13 09:56:57;;;;;;;4.00;3.50;;;;;;;;;;5068655;28;20372;-86
2021/07/13 09:59:25;;;;;;;8.35;3.95;;;;;;;;;;5070147;28;20369;-88
2021/07/13 10:01:51;;;;;;;6.95;3.20;;;;;;;;;;5070046;28;20400;-88
2021/07/13 10:04:17;;;;;;;3.70;3.40;;;;;;;;;;5072694;28;20360;-90
2021/07/13 10:06:44;;;;;;;4.75;3.38;;;;;;;;;;5074104;28;21063;-87
2021/07/13 10:09:13;;;;;;;7.15;3.60;;;;;;;;;;5072581;28;20388;-88
2021/07/13 10:11:40;;;;;;;3.40;3.10;;;;;;;;;;5070355;28;20396;-85
2021/07/13 10:14:07;;;;;;;4.35;3.22;;;;;;;;;;5089829;28;20927;-85
2021/07/13 10:16:33;;;;;;;6.75;3.60;;;;;;;;;;5072146;28;20965;-87
2021/07/13 10:18:59;;;;;;;3.47;3.17;;;;;;;;;;5074179;28;20396;-88
2021/07/13 10:21:26;;;;;;;6.65;3.70;;;;;;;;;;5095505;28;20377;-88
2021/07/13 10:23:55;;;;;;;13.20;4.45;;;;;;;;;;5076690;28;20381;-86
2021/07/13 10:26:43;;;;;;;6.45;3.83;;;;;;;;;;5095445;28;20368;-86
2021/07/13 10:29:27;;;;;;;4.40;3.47;;;;;;;;;;5075875;28;20433;-88
2021/07/13 10:31:53;;;;;;;4.93;2.92;;;;;;;;;;5075077;28;20400;-86
2021/07/13 10:34:38;;;;;;;4.95;3.22;;;;;;;;;;5074616;28;20388;-85
2021/07/13 10:37:24;;;;;;;3.53;3.10;;;;;;;;;;5090279;28;20382;-87
2021/07/13 10:39:50;;;;;;;4.13;3.10;;;;;;;;;;5073092;28;20723;-86
2021/07/13 10:42:35;;;;;;;3.85;3.38;;;;;;;;;;5073893;28;20929;-87
2021/07/13 10:45:18;;;;;;;4.40;3.22;;;;;;;;;;5090460;28;20432;-89
2021/07/13 10:48:01;;;;;;;3.72;3.42;;;;;;;;;;5072012;28;20415;-88
2021/07/13 10:50:29;;;;;;;5.30;3.30;;;;;;;;;;5090769;28;20374;-88
2021/07/13 10:52:58;;;;;;;3.38;2.75;;;;;;;;;;5092308;28;20906;-87
2021/07/13 10:55:30;;;;;;;4.93;2.97;;;;;;;;;;5092307;28;20412;-88
2021/07/13 10:58:12;;;;;;;4.03;3.17;;;;;;;;;;5073266;28;20411;-85
2021/07/13 11:00:50;;;;;;;6.60;3.50;;;;;;;;;;5075709;28;20442;-86
2021/07/13 11:03:37;;;;;;;4.05;2.83;;;;;;;;;;5079700;28;20430;-87
2021/07/13 11:06:04;;;;;;;4.63;3.00;;;;;;;;;;5093376;28;20395;-88
2021/07/13 11:11:06;;;;;;;3.40;3.10;;;;;;;;;;5090887;28;20400;-87
2021/07/13 11:13:32;;;;;;;4.20;3.23;;;;;;;;;;5092287;28;20396;-87
2021/07/13 11:15:58;;;;;;;7.13;3.55;;;;;;;;;;5089503;28;20365;-88
2021/07/13 11:18:28;;;;;;;5.43;3.03;;;;;;;;;;5073410;28;21215;-87
2021/07/13 11:20:54;;;;;;;4.60;3.55;;;;;;;;;;5077644;28;20392;-86
2021/07/13 11:23:30;;;;;;;5.38;2.97;;;;;;;;;;5101423;28;20368;-86
2021/07/13 11:26:03;;;;;;;3.47;3.10;;;;;;;;;;5101628;28;20438;-87
2021/07/13 11:28:29;;;;;;;3.40;3.10;;;;;;;;;;5074754;28;20899;-86
2021/07/13 11:30:56;;;;;;;6.00;3.10;;;;;;;;;;5073714;28;20951;-89
2021/07/13 11:33:30;;;;;;;4.78;3.00;;;;;;;;;;5073527;28;20423;-87
2021/07/13 11:35:57;;;;;;;3.63;3.22;;;;;;;;;;5073486;28;21428;-88
2021/07/13 11:38:28;;;;;;;8.45;4.10;;;;;;;;;;5073941;28;20492;-88
2021/07/13 11:41:12;;;;;;;3.50;3.20;;;;;;;;;;5091830;28;20364;-87
2021/07/13 11:43:39;;;;;;;3.38;3.08;;;;;;;;;;5072573;28;20377;-88
2021/07/13 11:46:11;;;;;;;4.95;3.60;;;;;;;;;;5071517;28;20380;-90
2021/07/13 11:48:38;;;;;;;3.90;3.60;;;;;;;;;;5072653;28;20429;-87
2021/07/13 11:51:08;;;;;;;4.80;3.28;;;;;;;;;;5089816;28;20469;-90
2021/07/13 11:53:35;;;;;;;3.45;3.15;;;;;;;;;;5073574;28;20886;-88
2021/07/13 11:56:02;;;;;;;4.70;3.22;;;;;;;;;;5073330;28;20440;-93
2021/07/13 11:58:29;;;;;;;3.35;3.05;;;;;;;;;;5073008;28;20528;-88
2021/07/13 12:01:15;;;;;;;3.72;2.88;;;;;;;;;;5073484;28;20742;-90
2021/07/13 12:03:41;;;;;;;5.15;3.63;;;;;;;;;;5071453;28;20372;-86
2021/07/13 12:06:08;;;;;;;6.95;3.53;;;;;;;;;;5091702;28;20842;-88
2021/07/13 12:08:35;;;;;;;3.45;3.00;;;;;;;;;;5071740;28;20862;-87
2021/07/13 12:11:03;;;;;;;3.42;3.13;;;;;;;;;;5074333;28;20692;-88
2021/07/13 12:13:30;;;;;;;20.85;5.15;;;;;;;;;;5090970;28;20406;-88
2021/07/13 12:16:16;;;;;;;12.25;3.78;;;;;;;;;;5073490;28;20368;-88
2021/07/13 12:18:43;;;;;;;38.55;5.95;;;;;;;;;;5072363;28;20399;-88
2021/07/13 12:21:14;;;;;;;4.70;2.90;;;;;;;;;;5070522;28;20456;-88
2021/07/13 12:23:41;;;;;;;3.40;2.97;;;;;;;;;;5067028;28;20467;-90
2021/07/13 12:26:23;;;;;;;4.95;3.55;;;;;;;;;;5069387;28;20465;-87
2021/07/13 12:29:00;;;;;;;4.50;3.00;;;;;;;;;;5069215;28;20404;-87
2021/07/13 12:31:26;;;;;;;6.63;3.30;;;;;;;;;;5069491;28;20375;-86
2021/07/13 12:33:54;;;;;;;2.97;2.78;;;;;;;;;;5086554;28;20430;-88
2021/07/13 12:36:29;;;;;;;3.40;3.08;;;;;;;;;;5070001;28;20850;-86
2021/07/13 12:38:58;;;;;;;5.68;3.58;;;;;;;;;;5069518;28;20381;-88
2021/07/13 12:41:29;;;;;;;3.35;2.90;;;;;;;;;;5069014;28;20376;-86
2021/07/13 12:43:55;;;;;;;3.40;3.03;;;;;;;;;;5070052;28;20428;-86
2021/07/13 12:46:34;;;;;;;3.05;2.75;;;;;;;;;;5088629;28;20375;-89
2021/07/13 12:49:10;;;;;;;3.40;2.80;;;;;;;;;;5069269;28;20434;-90
2021/07/13 12:51:45;;;;;;;9.67;3.73;;;;;;;;;;5086742;28;20376;-90
2021/07/13 12:54:11;;;;;;;3.90;2.75;;;;;;;;;;5069193;28;20426;-88
2021/07/13 12:56:38;;;;;;;3.10;2.80;;;;;;;;;;5068491;28;20384;-87
2021/07/13 12:59:08;;;;;;;3.50;3.20;;;;;;;;;;5069165;28;20395;-88
2021/07/13 13:01:35;;;;;;;5.97;3.15;;;;;;;;;;5069091;28;20380;-86
2021/07/13 13:04:10;;;;;;;4.07;2.80;;;;;;;;;;5068599;28;20426;-87
2021/07/13 13:06:37;;;;;;;3.50;2.70;;;;;;;;;;5068877;28;20400;-89
2021/07/13 13:09:12;;;;;;;3.58;2.90;;;;;;;;;;5069687;28;20408;-85
2021/07/13 13:11:38;;;;;;;3.03;2.55;;;;;;;;;;5072802;28;20412;-88
2021/07/13 13:14:06;;;;;;;3.60;3.10;;;;;;;;;;5070887;28;20862;-86
2021/07/13 13:16:35;;;;;;;3.72;2.80;;;;;;;;;;5072675;28;20369;-85
2021/07/13 13:19:01;;;;;;;3.80;3.00;;;;;;;;;;5090384;28;20790;-86
2021/07/13 13:21:28;;;;;;;4.22;2.90;;;;;;;;;;5072788;28;20456;-86
2021/07/13 13:23:55;;;;;;;5.40;2.90;;;;;;;;;;5072603;28;20408;-87
2021/07/13 13:26:21;;;;;;;4.83;3.30;;;;;;;;;;5091038;28;20382;-87
2021/07/13 13:28:47;;;;;;;8.73;3.42;;;;;;;;;;5091522;28;20727;-85
2021/07/13 13:31:13;;;;;;;3.72;3.13;;;;;;;;;;5091207;28;20391;-85
2021/07/13 13:33:39;;;;;;;4.25;3.03;;;;;;;;;;5072908;28;20518;-87
2021/07/13 13:36:18;;;;;;;4.93;3.22;;;;;;;;;;5072707;28;20511;-87
2021/07/13 13:38:55;;;;;;;4.37;3.27;;;;;;;;;;5088963;28;20425;-85
2021/07/13 13:41:21;;;;;;;4.03;3.30;;;;;;;;;;5073228;28;20746;-89
2021/07/13 13:43:47;;;;;;;3.70;3.35;;;;;;;;;;5091676;28;20758;-89
2021/07/13 13:46:13;;;;;;;4.97;3.43;;;;;;;;;;5073488;28;20372;-85
2021/07/13 13:48:39;;;;;;;4.18;3.78;;;;;;;;;;5073118;28;20375;-88
2021/07/13 13:51:06;;;;;;;11.80;4.50;;;;;;;;;;5088744;28;20375;-88
2021/07/13 13:53:34;;;;;;;4.28;3.88;;;;;;;;;;5072967;28;20459;-86
2021/07/13 13:56:00;;;;;;;3.88;3.47;;;;;;;;;;5090891;28;20854;-88
2021/07/13 13:58:26;;;;;;;5.25;3.80;;;;;;;;;;5073027;28;20373;-85
2021/07/13 14:00:53;;;;;;;4.13;3.80;;;;;;;;;;5072110;28;20463;-85
2021/07/13 14:03:19;;;;;;;4.28;3.88;;;;;;;;;;5072419;28;20458;-87
2021/07/13 14:05:44;;;;;;;6.53;4.37;;;;;;;;;;5088417;28;20401;-87
2021/07/13 14:08:10;;;;;;;5.95;4.13;;;;;;;;;;5072941;28;20479;-85
2021/07/13 14:10:37;;;;;;;4.45;4.10;;;;;;;;;;5068192;28;20388;-88
2021/07/13 14:13:03;;;;;;;4.63;4.18;;;;;;;;;;5069832;28;20490;-87
2021/07/13 14:15:29;;;;;;;4.65;4.18;;;;;;;;;;5071115;28;20376;-86
2021/07/13 14:17:55;;;;;;;4.90;4.00;;;;;;;;;;5070463;28;20408;-86
2021/07/13 14:20:21;;;;;;;4.28;3.88;;;;;;;;;;5071518;28;20479;-86
2021/07/13 14:22:47;;;;;;;5.70;4.40;;;;;;;;;;5070261;28;20501;-89
2021/07/13 14:25:17;;;;;;;5.30;4.47;;;;;;;;;;5072493;28;20426;-86
2021/07/13 14:27:44;;;;;;;4.80;4.40;;;;;;;;;;5089948;28;20480;-86
2021/07/13 14:30:12;;;;;;;6.53;4.32;;;;;;;;;;5071716;28;20950;-90
2021/07/13 14:32:38;;;;;;;9.23;5.30;;;;;;;;;;5090176;28;20389;-85
2021/07/13 14:35:04;;;;;;;6.15;4.78;;;;;;;;;;5080773;28;20398;-86